Ana Sayfa
METAR-TAF:

METAR-TAF

Havaalanları :

Harry Clever Field

New Philadelphia, Ohio, Amerika Birleşik Devletleri

Enlem: 40-28-19N, Boylam: 081-25-25W, yükseklik: 272 m

Güncel hava durumu gözlemi

Rapor saat 22:53 UTC de 1 saat ve 0 dakika önce yapıldı.
Rüzgar güney/güneydoğudan 5 kt
Sıcaklık 9°C
Nem 61%
Basınç 1019 hPa
Görüş mesafesi: 16.1 km
6000 ft yükseklikte çok bulutlu

METAR: KPHD 082253Z AUTO 15005KT 10SM OVC060 09/02 A3008 RMK AO2 SLP193 T00940022

Saat: 18:53 (23:53 UTC)


TAF: eksik

4.000'den fazla havaalanı için hava durumu gözlemleri ve tahminleri (METAR ve TAF raporları).

Kullanılabilir istasyonlar harita üzerinde sarı ve kırmızı noktalarla gösterilir.

İstasyonun adını görmek için fareyi noktanın üzerinde gezdirin.

Sonrasında hava gözlem ve tahminlerini görmek için tıklayın.

Haritayı değiştirmek için: yaklaştırmak için siyah artı işaretli yeşil düğmeye ve uzaklaştırmak için de eksi işaretli düğmeye hızla tıklayın; bitişik haritalar için yeşil okları kullanın.


METAR-TAF: